createdAt,value
2022-08-07T00:02:40.525Z,25.20
2022-08-07T00:05:00.080Z,25.50
2022-08-07T00:07:29.067Z,25.60
2022-08-07T00:10:26.326Z,25.70
2022-08-07T00:13:01.254Z,25.70
2022-08-07T00:15:38.578Z,25.90
2022-08-07T00:18:18.855Z,25.70
2022-08-07T00:20:49.636Z,25.60
2022-08-07T00:23:18.599Z,25.20
2022-08-07T00:25:58.130Z,24.90
2022-08-07T00:28:31.575Z,24.70
2022-08-07T00:31:04.571Z,24.70
2022-08-07T00:33:35.111Z,24.60
2022-08-07T00:36:04.494Z,24.60
2022-08-07T00:38:34.249Z,24.80
2022-08-07T00:41:03.084Z,24.70
2022-08-07T00:44:01.889Z,24.80
2022-08-07T00:46:22.461Z,25.10
2022-08-07T00:48:51.841Z,25.40
2022-08-07T00:51:21.368Z,25.40
2022-08-07T00:53:55.022Z,25.10
2022-08-07T00:56:29.980Z,25.00
2022-08-07T00:59:00.621Z,24.80
2022-08-07T01:01:29.669Z,24.40
2022-08-07T01:04:24.723Z,24.20
2022-08-07T01:06:53.899Z,24.30
2022-08-07T01:10:03.891Z,24.10
2022-08-07T01:12:29.954Z,24.10
2022-08-07T01:15:04.043Z,24.20
2022-08-07T01:17:34.054Z,24.40
2022-08-07T01:20:09.000Z,24.30
2022-08-07T01:22:46.943Z,24.40
2022-08-07T01:25:54.930Z,24.50
2022-08-07T01:28:17.618Z,24.40
2022-08-07T01:30:47.919Z,24.50
2022-08-07T01:33:19.994Z,24.20
2022-08-07T01:35:54.427Z,24.40
2022-08-07T01:38:36.164Z,24.60
2022-08-07T01:41:07.231Z,24.80
2022-08-07T01:43:39.503Z,25.00
2022-08-07T01:46:12.352Z,25.10
2022-08-07T01:48:46.730Z,25.20
2022-08-07T01:52:03.815Z,25.00
2022-08-07T01:54:32.878Z,25.20
2022-08-07T01:57:09.193Z,25.20
2022-08-07T01:59:57.016Z,25.20
2022-08-07T02:03:05.722Z,25.20
2022-08-07T02:05:47.854Z,25.20
2022-08-07T02:08:17.416Z,25.20
2022-08-07T02:10:55.457Z,25.40
2022-08-07T02:13:57.841Z,25.60
2022-08-07T02:16:29.932Z,25.70
2022-08-07T02:19:05.645Z,25.90
2022-08-07T02:21:55.802Z,26.00
2022-08-07T02:24:29.723Z,26.20
2022-08-07T02:27:02.652Z,26.40
2022-08-07T02:29:34.361Z,26.40
2022-08-07T02:32:06.764Z,26.40
2022-08-07T02:34:49.012Z,26.50
2022-08-07T02:37:21.894Z,26.50
2022-08-07T02:40:01.998Z,26.60
2022-08-07T02:42:43.049Z,26.60
2022-08-07T02:45:59.056Z,26.40
2022-08-07T02:48:03.909Z,26.30
2022-08-07T02:50:44.106Z,25.90
2022-08-07T02:53:16.598Z,25.50
2022-08-07T02:56:04.225Z,25.50
2022-08-07T02:58:36.425Z,25.40
2022-08-07T03:04:12.627Z,25.00
2022-08-07T03:06:44.717Z,25.00
2022-08-07T03:09:14.838Z,24.90
2022-08-07T03:12:05.345Z,24.80
2022-08-07T03:14:38.275Z,24.80
2022-08-07T03:17:08.921Z,24.90
2022-08-07T03:19:38.240Z,25.30
2022-08-07T03:22:08.297Z,25.70
2022-08-07T03:24:48.009Z,25.90
2022-08-07T03:27:30.312Z,26.00
2022-08-07T03:30:08.739Z,26.20
2022-08-07T03:32:49.315Z,26.20
2022-08-07T03:35:43.796Z,26.10
2022-08-07T03:38:21.331Z,25.90
2022-08-07T03:40:58.228Z,25.60
2022-08-07T03:43:32.422Z,25.50
2022-08-07T03:46:18.290Z,25.80
2022-08-07T03:49:03.085Z,26.10
2022-08-07T03:51:47.234Z,26.30
2022-08-07T03:54:36.002Z,26.40
2022-08-07T03:57:07.213Z,26.30
2022-08-07T03:59:36.354Z,26.00
2022-08-07T04:02:17.294Z,25.70
2022-08-07T04:04:46.064Z,25.50
2022-08-07T04:07:17.686Z,25.50
2022-08-07T04:09:50.422Z,25.00
2022-08-07T04:12:25.933Z,24.80
2022-08-07T04:14:57.963Z,24.80
2022-08-07T04:17:31.070Z,24.90
2022-08-07T04:20:19.625Z,24.90
2022-08-07T04:22:53.828Z,25.30
2022-08-07T04:25:38.987Z,25.40
2022-08-07T04:28:08.130Z,25.60
2022-08-07T04:30:43.834Z,25.30
2022-08-07T04:33:26.838Z,25.10
2022-08-07T04:35:57.100Z,24.90
2022-08-07T04:38:27.536Z,24.90
2022-08-07T04:40:57.563Z,24.70
2022-08-07T04:44:09.675Z,24.40
2022-08-07T04:46:29.525Z,24.60
2022-08-07T04:49:18.027Z,25.10
2022-08-07T04:52:01.463Z,25.50
2022-08-07T04:54:35.139Z,25.70
2022-08-07T04:58:16.379Z,25.80
2022-08-07T05:00:09.603Z,25.90
2022-08-07T05:02:51.643Z,26.00
2022-08-07T05:05:53.875Z,26.00
2022-08-07T05:08:59.742Z,25.60
2022-08-07T05:11:19.377Z,25.10
2022-08-07T05:14:53.189Z,24.70
2022-08-07T05:16:52.636Z,24.60
2022-08-07T05:19:32.573Z,24.60
2022-08-07T05:22:26.766Z,24.70
2022-08-07T05:24:59.494Z,24.70
2022-08-07T05:28:16.140Z,24.80
2022-08-07T05:30:29.930Z,24.80
2022-08-07T05:33:02.600Z,24.50
2022-08-07T05:35:42.085Z,24.60
2022-08-07T05:38:12.945Z,25.00
2022-08-07T05:41:11.984Z,25.00
2022-08-07T05:44:08.155Z,24.90
2022-08-07T05:46:37.527Z,24.90
2022-08-07T05:49:12.536Z,25.10
2022-08-07T05:51:42.822Z,25.40
2022-08-07T05:54:30.521Z,25.30
2022-08-07T05:57:03.450Z,25.30
2022-08-07T05:59:47.238Z,25.50
2022-08-07T06:02:29.039Z,25.70
2022-08-07T06:05:03.615Z,25.90
2022-08-07T06:08:09.183Z,26.00
2022-08-07T06:10:24.743Z,26.00
2022-08-07T06:12:53.729Z,26.00
2022-08-07T06:15:38.983Z,26.10
2022-08-07T06:18:14.065Z,26.10
2022-08-07T06:20:50.304Z,26.00
2022-08-07T06:24:37.638Z,25.90
2022-08-07T06:26:27.629Z,25.80
2022-08-07T06:29:01.160Z,25.60
2022-08-07T06:31:46.714Z,25.70
2022-08-07T06:34:19.464Z,25.70
2022-08-07T06:36:48.410Z,25.70
2022-08-07T06:40:17.715Z,25.90
2022-08-07T06:42:17.721Z,26.20
2022-08-07T06:44:50.876Z,26.20
2022-08-07T06:47:20.943Z,26.30
2022-08-07T06:49:51.584Z,26.30
2022-08-07T06:52:35.781Z,26.40
2022-08-07T06:55:34.249Z,26.30
2022-08-07T06:58:02.778Z,26.40
2022-08-07T07:00:36.889Z,26.40
2022-08-07T07:03:08.668Z,26.30
2022-08-07T07:06:03.543Z,26.40
2022-08-07T07:08:29.690Z,26.50
2022-08-07T07:11:00.955Z,26.70
2022-08-07T07:13:55.507Z,26.80
2022-08-07T07:16:30.221Z,26.80
2022-08-07T07:19:56.262Z,26.60
2022-08-07T07:22:04.722Z,26.80
2022-08-07T07:24:43.229Z,26.80
2022-08-07T07:27:35.857Z,26.90
2022-08-07T07:30:32.401Z,27.10
2022-08-07T07:33:09.069Z,27.00
2022-08-07T07:35:54.151Z,27.20
2022-08-07T07:38:34.947Z,27.20
2022-08-07T07:41:08.545Z,27.30
2022-08-07T07:43:48.134Z,27.50
2022-08-07T07:46:53.389Z,27.60
2022-08-07T07:50:32.720Z,27.50
2022-08-07T07:52:15.760Z,27.60
2022-08-07T07:54:51.094Z,27.80
2022-08-07T07:57:51.656Z,27.70
2022-08-07T08:00:20.787Z,27.60
2022-08-07T08:03:05.407Z,27.70
2022-08-07T08:05:53.671Z,27.30
2022-08-07T08:08:34.550Z,27.50
2022-08-07T08:11:08.997Z,27.50
2022-08-07T08:13:54.805Z,27.60
2022-08-07T08:16:35.126Z,27.50
2022-08-07T08:19:09.800Z,27.70
2022-08-07T08:22:07.728Z,28.00
2022-08-07T08:25:09.325Z,28.10
2022-08-07T08:27:56.647Z,28.40
2022-08-07T08:30:29.175Z,28.50
2022-08-07T08:33:01.538Z,28.50
2022-08-07T08:35:39.122Z,28.60
2022-08-07T08:38:18.400Z,28.80
2022-08-07T08:40:57.056Z,28.80
2022-08-07T08:43:42.099Z,28.90
2022-08-07T08:46:20.515Z,28.90
2022-08-07T08:48:59.103Z,29.00
2022-08-07T08:52:12.872Z,28.80
2022-08-07T08:54:26.510Z,28.70
2022-08-07T08:56:56.528Z,28.80
2022-08-07T08:59:30.465Z,28.90
2022-08-07T09:04:54.262Z,28.90
2022-08-07T09:07:46.233Z,29.10
2022-08-07T09:10:24.285Z,29.20
2022-08-07T09:13:06.975Z,29.30
2022-08-07T09:16:23.616Z,29.50
2022-08-07T09:18:58.445Z,29.70
2022-08-07T09:22:09.695Z,29.80
2022-08-07T09:25:00.613Z,30.00
2022-08-07T09:27:54.534Z,30.10
2022-08-07T09:30:28.137Z,30.10
2022-08-07T09:33:16.678Z,30.10
2022-08-07T09:36:06.359Z,30.00
2022-08-07T09:38:49.949Z,30.00
2022-08-07T09:41:43.358Z,30.10
2022-08-07T09:44:58.388Z,30.00
2022-08-07T09:47:59.590Z,29.90
2022-08-07T09:50:37.741Z,29.80
2022-08-07T09:53:12.603Z,29.80
2022-08-07T09:56:03.273Z,29.70
2022-08-07T09:59:14.771Z,29.70
2022-08-07T10:05:21.272Z,30.10
2022-08-07T10:08:29.593Z,30.00
2022-08-07T10:11:17.064Z,30.30
2022-08-07T10:14:11.217Z,30.60
2022-08-07T10:17:14.065Z,30.50
2022-08-07T10:19:52.415Z,30.60
2022-08-07T10:22:36.630Z,30.60
2022-08-07T10:25:20.845Z,30.60
2022-08-07T10:28:07.703Z,30.50
2022-08-07T10:30:54.730Z,30.60
2022-08-07T10:34:06.283Z,30.30
2022-08-07T10:36:48.777Z,30.50
2022-08-07T10:39:41.440Z,30.50
2022-08-07T10:42:31.272Z,30.50
2022-08-07T10:45:16.718Z,30.60
2022-08-07T10:48:03.365Z,30.70
2022-08-07T10:50:36.570Z,30.70
2022-08-07T10:53:12.241Z,30.60
2022-08-07T10:55:54.098Z,30.50
2022-08-07T10:58:40.439Z,30.60
2022-08-07T11:01:35.678Z,30.70
2022-08-07T11:04:42.738Z,30.80
2022-08-07T11:07:58.734Z,30.80
2022-08-07T11:10:20.977Z,30.90
2022-08-07T11:13:01.548Z,31.10
2022-08-07T11:15:37.186Z,31.30
2022-08-07T11:18:12.506Z,31.40
2022-08-07T11:20:50.947Z,31.00
2022-08-07T11:23:36.611Z,31.20
2022-08-07T11:26:13.444Z,31.40
2022-08-07T11:28:53.573Z,31.30
2022-08-07T11:31:35.073Z,31.50
2022-08-07T11:34:16.374Z,31.50
2022-08-07T11:36:57.962Z,31.50
2022-08-07T11:40:00.124Z,31.20
2022-08-07T11:42:42.422Z,30.90
2022-08-07T11:45:20.535Z,30.90
2022-08-07T11:48:13.867Z,31.20
2022-08-07T11:51:09.020Z,31.50
2022-08-07T11:54:00.393Z,31.50
2022-08-07T11:56:43.361Z,31.50
2022-08-07T12:00:10.247Z,31.80
2022-08-07T12:05:28.740Z,31.80
2022-08-07T12:08:26.175Z,31.60
2022-08-07T12:11:21.156Z,31.80
2022-08-07T12:13:57.212Z,32.00
2022-08-07T12:16:31.022Z,32.20
2022-08-07T12:19:08.166Z,32.20
2022-08-07T12:22:35.671Z,32.40
2022-08-07T12:24:40.222Z,32.30
2022-08-07T12:27:16.904Z,32.00
2022-08-07T12:29:51.852Z,32.10
2022-08-07T12:32:29.182Z,32.00
2022-08-07T12:35:07.299Z,31.60
2022-08-07T12:38:09.413Z,31.50
2022-08-07T12:40:50.370Z,31.60
2022-08-07T12:44:03.011Z,31.40
2022-08-07T12:46:32.432Z,31.80
2022-08-07T12:49:39.701Z,31.90
2022-08-07T12:52:14.297Z,32.20
2022-08-07T12:54:55.009Z,32.20
2022-08-07T12:57:29.861Z,32.30
2022-08-07T13:00:16.268Z,32.10
2022-08-07T13:06:04.477Z,32.30
2022-08-07T13:08:57.345Z,32.00
2022-08-07T13:12:02.467Z,32.00
2022-08-07T13:14:46.848Z,32.20
2022-08-07T13:17:39.799Z,32.20
2022-08-07T13:20:18.033Z,32.10
2022-08-07T13:22:53.703Z,32.00
2022-08-07T13:25:30.723Z,32.00
2022-08-07T13:28:10.806Z,31.80
2022-08-07T13:30:53.247Z,31.70
2022-08-07T13:34:31.337Z,31.60
2022-08-07T13:36:39.385Z,31.60
2022-08-07T13:39:28.435Z,31.70
2022-08-07T13:42:10.373Z,31.70
2022-08-07T13:44:41.046Z,31.60
2022-08-07T13:47:25.184Z,31.40
2022-08-07T13:50:35.744Z,31.30
2022-08-07T13:52:58.020Z,31.30
2022-08-07T13:55:37.074Z,31.60
2022-08-07T14:01:26.037Z,32.20
2022-08-07T14:16:03.808Z,32.20
2022-08-07T14:18:39.778Z,32.30
2022-08-07T14:22:00.677Z,32.40
2022-08-07T14:24:06.122Z,32.20
2022-08-07T14:26:50.580Z,32.00
2022-08-07T14:30:05.846Z,32.10
2022-08-07T14:32:15.244Z,32.20
2022-08-07T14:34:47.182Z,32.00
2022-08-07T14:37:18.692Z,32.00
2022-08-07T14:43:54.962Z,31.90
2022-08-07T14:45:46.736Z,31.90
2022-08-07T14:48:21.134Z,31.90
2022-08-07T14:50:53.640Z,32.20
2022-08-07T14:54:05.579Z,32.20
2022-08-07T14:59:13.389Z,32.10
2022-08-07T15:02:09.335Z,32.10
2022-08-07T15:05:01.650Z,32.20
2022-08-07T15:07:51.061Z,32.40
2022-08-07T15:13:22.544Z,31.80
2022-08-07T15:16:01.303Z,31.70
2022-08-07T15:18:35.800Z,31.90
2022-08-07T15:25:12.891Z,32.10
2022-08-07T15:27:01.240Z,32.20
2022-08-07T15:30:08.644Z,32.00
2022-08-07T15:32:39.879Z,32.10
2022-08-07T15:35:17.973Z,32.00
2022-08-07T15:38:04.686Z,31.90
2022-08-07T15:41:00.493Z,31.80
2022-08-07T15:43:55.789Z,32.00
2022-08-07T15:46:32.129Z,31.90
2022-08-07T15:49:14.655Z,32.00
2022-08-07T15:54:34.185Z,31.90
2022-08-07T15:57:05.118Z,31.90
2022-08-07T15:59:37.983Z,31.90
2022-08-07T16:02:15.201Z,31.70
2022-08-07T16:04:44.842Z,31.80
2022-08-07T16:08:31.976Z,31.70
2022-08-07T16:10:15.048Z,31.50
2022-08-07T16:13:01.107Z,31.40
2022-08-07T16:15:54.436Z,31.40
2022-08-07T16:18:51.640Z,31.60
2022-08-07T16:22:02.303Z,31.60
2022-08-07T16:24:34.813Z,31.60
2022-08-07T16:27:18.549Z,31.40
2022-08-07T16:30:11.240Z,31.50
2022-08-07T16:33:00.118Z,31.40
2022-08-07T16:36:02.813Z,31.50
2022-08-07T16:39:01.004Z,31.50
2022-08-07T16:42:00.248Z,31.40
2022-08-07T16:45:14.940Z,31.40
2022-08-07T16:47:59.523Z,31.50
2022-08-07T16:50:52.755Z,31.40
2022-08-07T16:54:06.112Z,31.40
2022-08-07T16:56:53.107Z,31.40
2022-08-07T16:59:46.971Z,31.40
2022-08-07T17:06:29.893Z,31.30
2022-08-07T17:09:09.378Z,31.30
2022-08-07T17:12:04.814Z,31.20
2022-08-07T17:14:49.628Z,31.10
2022-08-07T17:17:46.636Z,31.20
2022-08-07T17:20:30.011Z,31.10
2022-08-07T17:23:08.829Z,31.00
2022-08-07T17:25:53.081Z,30.90
2022-08-07T17:28:32.892Z,30.90
2022-08-07T17:31:16.101Z,31.00
2022-08-07T17:34:32.894Z,30.90
2022-08-07T17:36:57.709Z,30.90
2022-08-07T17:39:58.851Z,30.80
2022-08-07T17:42:58.207Z,30.80
2022-08-07T17:45:31.784Z,30.70
2022-08-07T17:48:10.359Z,30.80
2022-08-07T17:51:01.543Z,30.70
2022-08-07T17:54:00.550Z,30.60
2022-08-07T17:56:32.244Z,30.30
2022-08-07T17:59:10.168Z,30.00
2022-08-07T18:01:51.754Z,29.60
2022-08-07T18:04:43.340Z,29.50
2022-08-07T18:07:24.432Z,29.20
2022-08-07T18:10:06.288Z,29.00
2022-08-07T18:12:49.665Z,28.60
2022-08-07T18:15:32.878Z,28.30
2022-08-07T18:18:47.225Z,28.30
2022-08-07T18:21:38.140Z,28.30
2022-08-07T18:24:28.457Z,28.10
2022-08-07T18:27:38.892Z,28.00
2022-08-07T18:30:31.279Z,27.40
2022-08-07T18:33:59.994Z,26.80
2022-08-07T18:36:41.187Z,26.30
2022-08-07T18:40:07.792Z,26.00
2022-08-07T18:42:18.928Z,26.20
2022-08-07T18:45:43.954Z,26.20
2022-08-07T18:48:01.161Z,26.30
2022-08-07T18:50:53.726Z,26.40
2022-08-07T18:53:39.575Z,26.40
2022-08-07T18:56:17.744Z,26.20
2022-08-07T18:59:48.085Z,26.20
2022-08-07T19:02:34.536Z,25.90
2022-08-07T19:05:15.786Z,25.80
2022-08-07T19:07:58.871Z,25.70
2022-08-07T19:10:49.406Z,25.60
2022-08-07T19:13:27.431Z,25.70
2022-08-07T19:17:04.639Z,25.70
2022-08-07T19:18:59.869Z,25.40
2022-08-07T19:21:51.029Z,25.50
2022-08-07T19:24:30.507Z,25.50
2022-08-07T19:28:57.738Z,25.70
2022-08-07T19:31:03.911Z,25.60
2022-08-07T19:32:59.477Z,25.40
2022-08-07T19:35:33.581Z,25.30
2022-08-07T19:38:16.160Z,25.40
2022-08-07T19:40:50.175Z,25.30
2022-08-07T19:43:45.047Z,25.20
2022-08-07T19:46:18.881Z,25.00
2022-08-07T19:48:54.049Z,25.00
2022-08-07T19:51:52.736Z,24.90
2022-08-07T19:54:31.864Z,24.80
2022-08-07T19:58:01.028Z,24.70
2022-08-07T20:00:00.695Z,24.80
2022-08-07T20:02:33.360Z,24.80
2022-08-07T20:05:07.991Z,24.90
2022-08-07T20:07:45.984Z,25.00
2022-08-07T20:10:37.815Z,25.10
2022-08-07T20:13:22.681Z,25.10
2022-08-07T20:15:57.645Z,25.20
2022-08-07T20:18:33.396Z,25.20
2022-08-07T20:21:21.572Z,25.20
2022-08-07T20:23:54.993Z,25.00
2022-08-07T20:26:38.696Z,25.00
2022-08-07T20:29:49.293Z,24.70
2022-08-07T20:32:11.538Z,24.70
2022-08-07T20:34:53.983Z,24.90
2022-08-07T20:37:58.915Z,24.70
2022-08-07T20:40:32.641Z,24.80
2022-08-07T20:43:09.511Z,24.70
2022-08-07T20:46:26.125Z,24.80
2022-08-07T20:48:35.299Z,24.90
2022-08-07T20:51:09.381Z,24.80
2022-08-07T20:54:02.804Z,24.70
2022-08-07T20:56:32.416Z,24.70
2022-08-07T20:59:05.077Z,24.70
2022-08-07T21:01:45.455Z,24.80
2022-08-07T21:04:22.600Z,24.90
2022-08-07T21:06:56.845Z,24.80
2022-08-07T21:09:51.589Z,24.90
2022-08-07T21:12:28.706Z,25.00
2022-08-07T21:15:01.356Z,24.80
2022-08-07T21:18:03.031Z,25.00
2022-08-07T21:20:29.485Z,25.00
2022-08-07T21:23:07.724Z,24.80
2022-08-07T21:25:58.524Z,24.80
2022-08-07T21:28:48.594Z,24.80
2022-08-07T21:32:42.465Z,24.50
2022-08-07T21:34:46.134Z,24.60
2022-08-07T21:37:22.974Z,24.60
2022-08-07T21:39:56.969Z,24.40
2022-08-07T21:42:46.833Z,24.20
2022-08-07T21:46:09.921Z,24.20
2022-08-07T21:48:27.958Z,24.40
2022-08-07T21:51:19.493Z,24.30
2022-08-07T21:53:54.048Z,24.10
2022-08-07T21:56:36.122Z,24.20
2022-08-07T21:59:09.070Z,24.20
2022-08-07T22:02:11.314Z,24.20
2022-08-07T22:04:38.427Z,24.30
2022-08-07T22:07:13.469Z,24.30
2022-08-07T22:09:53.687Z,24.50
2022-08-07T22:12:31.567Z,24.50
2022-08-07T22:16:39.826Z,24.70
2022-08-07T22:17:57.814Z,24.50
2022-08-07T22:20:35.726Z,24.30
2022-08-07T22:23:21.644Z,24.40
2022-08-07T22:26:06.308Z,24.20
2022-08-07T22:28:48.578Z,24.20
2022-08-07T22:31:59.201Z,24.40
2022-08-07T22:34:28.585Z,24.30
2022-08-07T22:37:09.661Z,24.40
2022-08-07T22:39:52.418Z,24.40
2022-08-07T22:42:29.622Z,24.40
2022-08-07T22:46:21.655Z,24.40
2022-08-07T22:48:13.650Z,24.50
2022-08-07T22:51:01.163Z,24.40
2022-08-07T22:54:07.873Z,24.40
2022-08-07T22:56:52.171Z,24.50
2022-08-07T22:59:50.271Z,24.40
2022-08-07T23:02:33.911Z,24.40
2022-08-07T23:06:07.811Z,24.50
2022-08-07T23:08:51.605Z,24.40
2022-08-07T23:11:44.229Z,24.40
2022-08-07T23:14:32.713Z,24.40
2022-08-07T23:17:20.472Z,24.60
2022-08-07T23:20:14.904Z,24.70
2022-08-07T23:22:57.021Z,24.60
2022-08-07T23:25:36.302Z,24.60
2022-08-07T23:28:29.253Z,24.40
2022-08-07T23:31:42.735Z,24.50
2022-08-07T23:34:38.324Z,24.50
2022-08-07T23:37:31.028Z,24.40
2022-08-07T23:40:12.940Z,24.50
2022-08-07T23:43:01.989Z,24.40
2022-08-07T23:46:03.215Z,24.40
2022-08-07T23:48:58.623Z,24.20
2022-08-07T23:53:05.446Z,24.30
2022-08-07T23:54:44.040Z,24.30
2022-08-07T23:57:23.511Z,24.20
